Time;durP1;ratioP1;P1;durP2;ratioP2;P2;SDS_P1;SDS_P2;PMS_P1;PMS_P2;Temp;Humidity;BMP_temperature;BMP_pressure;BME280_temperature;BME280_humidity;BME280_pressure;Samples;Min_cycle;Max_cycle;Signal;HPM_P1;HPM_P2
2024/01/18 00:02:46;;;;;;;44.55;33.65;;;;;;;;;;10236097;28;20079;-62
2024/01/18 00:07:44;;;;;;;48.80;35.80;;;;;;;;;;10235330;28;20073;-62
2024/01/18 00:12:43;;;;;;;34.78;25.30;;;;;;;;;;10242946;28;20073;-61
2024/01/18 00:17:42;;;;;;;29.13;22.55;;;;;;;;;;10239751;28;20488;-61
2024/01/18 00:22:40;;;;;;;41.40;28.15;;;;;;;;;;10240241;28;20073;-61
2024/01/18 00:27:38;;;;;;;68.28;46.65;;;;;;;;;;10240108;28;20080;-62
2024/01/18 00:32:38;;;;;;;88.65;57.78;;;;;;;;;;10240122;28;20072;-61
2024/01/18 00:37:36;;;;;;;56.00;35.65;;;;;;;;;;10246199;28;20534;-62
2024/01/18 00:42:34;;;;;;;41.00;27.80;;;;;;;;;;10241529;28;20079;-61
2024/01/18 00:47:33;;;;;;;58.80;38.03;;;;;;;;;;10240099;28;20096;-61
2024/01/18 00:52:33;;;;;;;42.42;29.60;;;;;;;;;;10237750;28;20123;-62
2024/01/18 00:57:33;;;;;;;33.63;25.08;;;;;;;;;;10242841;28;20065;-61
2024/01/18 01:02:31;;;;;;;25.67;20.88;;;;;;;;;;10244047;28;20080;-61
2024/01/18 01:07:30;;;;;;;30.13;22.17;;;;;;;;;;10245731;28;20072;-61
2024/01/18 01:12:29;;;;;;;21.00;14.55;;;;;;;;;;10243773;28;20505;-61
2024/01/18 01:17:28;;;;;;;20.25;15.63;;;;;;;;;;10241730;28;20065;-61
2024/01/18 01:22:26;;;;;;;25.85;19.50;;;;;;;;;;10247389;28;20071;-61
2024/01/18 01:27:24;;;;;;;23.20;18.40;;;;;;;;;;10239535;28;20069;-61
2024/01/18 01:32:24;;;;;;;23.10;18.50;;;;;;;;;;10241235;28;20440;-61
2024/01/18 01:37:22;;;;;;;36.20;23.00;;;;;;;;;;10238900;28;20482;-60
2024/01/18 01:42:21;;;;;;;25.65;20.23;;;;;;;;;;10239896;28;20068;-61
2024/01/18 01:47:19;;;;;;;38.00;25.23;;;;;;;;;;10241291;28;20084;-61
2024/01/18 01:52:19;;;;;;;23.30;19.20;;;;;;;;;;10238157;28;20068;-61
2024/01/18 01:57:18;;;;;;;25.77;18.83;;;;;;;;;;10241935;28;20494;-61
2024/01/18 02:02:17;;;;;;;24.75;19.52;;;;;;;;;;10242794;28;20514;-62
2024/01/18 02:07:16;;;;;;;24.58;20.60;;;;;;;;;;10243697;28;20537;-61
2024/01/18 02:12:15;;;;;;;29.40;21.20;;;;;;;;;;10230243;28;20092;-61
2024/01/18 02:17:14;;;;;;;24.27;19.83;;;;;;;;;;10241435;28;20667;-61
2024/01/18 02:22:13;;;;;;;26.17;19.90;;;;;;;;;;10232451;28;20065;-61
2024/01/18 02:27:12;;;;;;;29.35;19.77;;;;;;;;;;10237543;28;20084;-60
2024/01/18 02:32:10;;;;;;;28.90;22.27;;;;;;;;;;10235632;28;20203;-61
2024/01/18 02:37:09;;;;;;;24.23;20.08;;;;;;;;;;10238041;28;20069;-61
2024/01/18 02:42:08;;;;;;;25.75;21.20;;;;;;;;;;10235969;28;20534;-61
2024/01/18 02:47:07;;;;;;;27.90;22.17;;;;;;;;;;10237903;28;20095;-61
2024/01/18 02:52:06;;;;;;;29.13;22.80;;;;;;;;;;10241160;28;20077;-61
2024/01/18 02:57:04;;;;;;;169.50;93.80;;;;;;;;;;10241858;28;20518;-61
2024/01/18 03:02:04;;;;;;;52.42;34.40;;;;;;;;;;10237833;28;20073;-61
2024/01/18 03:07:04;;;;;;;31.25;22.60;;;;;;;;;;10241141;28;20079;-61
2024/01/18 03:12:02;;;;;;;32.08;24.75;;;;;;;;;;10234021;28;20076;-61
2024/01/18 03:17:00;;;;;;;27.27;21.75;;;;;;;;;;10238274;28;20076;-61
2024/01/18 03:21:58;;;;;;;29.17;22.60;;;;;;;;;;10237443;28;20067;-60
2024/01/18 03:26:58;;;;;;;24.20;18.77;;;;;;;;;;10236695;28;20077;-60
2024/01/18 03:31:56;;;;;;;25.67;20.27;;;;;;;;;;10239056;28;20072;-60
2024/01/18 03:36:54;;;;;;;25.08;20.58;;;;;;;;;;10241362;28;20076;-61
2024/01/18 03:41:53;;;;;;;24.08;18.73;;;;;;;;;;10236454;28;20073;-60
2024/01/18 03:46:52;;;;;;;25.45;18.95;;;;;;;;;;10238456;28;20081;-61
2024/01/18 03:51:51;;;;;;;34.40;23.75;;;;;;;;;;10233459;28;20069;-60
2024/01/18 03:56:49;;;;;;;31.08;25.58;;;;;;;;;;10236712;28;20080;-60
2024/01/18 04:01:47;;;;;;;33.88;26.17;;;;;;;;;;10243068;28;20103;-61
2024/01/18 04:06:46;;;;;;;59.83;40.67;;;;;;;;;;10240773;28;20084;-61
2024/01/18 04:11:45;;;;;;;43.40;31.35;;;;;;;;;;10241657;28;20068;-60
2024/01/18 04:16:44;;;;;;;41.70;32.42;;;;;;;;;;10244996;28;20073;-62
2024/01/18 04:21:43;;;;;;;36.63;28.85;;;;;;;;;;10244133;28;20517;-63
2024/01/18 04:26:43;;;;;;;34.30;26.02;;;;;;;;;;10248035;28;20065;-60
2024/01/18 04:31:41;;;;;;;36.20;25.48;;;;;;;;;;10245632;28;20084;-60
2024/01/18 04:36:39;;;;;;;39.05;27.08;;;;;;;;;;10244922;28;20084;-60
2024/01/18 04:41:37;;;;;;;31.92;27.35;;;;;;;;;;10238423;28;20083;-61
2024/01/18 04:46:37;;;;;;;34.00;27.73;;;;;;;;;;10243827;28;20092;-60
2024/01/18 04:51:35;;;;;;;37.85;28.73;;;;;;;;;;10241690;28;20087;-60
2024/01/18 04:56:35;;;;;;;38.63;29.35;;;;;;;;;;10240462;28;20061;-60
2024/01/18 05:01:37;;;;;;;41.35;31.17;;;;;;;;;;10246826;28;20091;-60
2024/01/18 05:06:37;;;;;;;59.05;38.88;;;;;;;;;;10239355;28;20064;-60
2024/01/18 05:11:35;;;;;;;39.60;30.92;;;;;;;;;;10240541;28;20131;-60
2024/01/18 05:16:39;;;;;;;37.97;30.00;;;;;;;;;;10234128;28;20096;-60
2024/01/18 05:21:39;;;;;;;63.25;44.17;;;;;;;;;;10243334;28;20073;-61
2024/01/18 05:26:37;;;;;;;39.10;28.60;;;;;;;;;;10243230;28;20079;-60
2024/01/18 05:31:36;;;;;;;82.68;67.85;;;;;;;;;;10239986;28;20168;-60
2024/01/18 05:36:34;;;;;;;42.30;35.80;;;;;;;;;;10235902;28;20073;-61
2024/01/18 05:41:34;;;;;;;33.17;27.85;;;;;;;;;;10232177;28;20068;-61
2024/01/18 05:46:32;;;;;;;44.38;30.85;;;;;;;;;;10229583;28;20515;-61
2024/01/18 05:51:30;;;;;;;40.88;32.25;;;;;;;;;;10240699;28;20068;-61
2024/01/18 05:56:29;;;;;;;36.20;27.13;;;;;;;;;;10233520;28;20088;-60
2024/01/18 06:01:28;;;;;;;168.48;93.82;;;;;;;;;;10240769;28;20076;-61
2024/01/18 06:06:28;;;;;;;49.13;37.50;;;;;;;;;;10236947;28;20067;-61
2024/01/18 06:11:28;;;;;;;44.15;34.85;;;;;;;;;;10227688;28;20595;-60
2024/01/18 06:21:57;;;;;;;33.05;26.73;;;;;;;;;;10573186;23;20082;-60
2024/01/18 06:26:55;;;;;;;33.40;27.88;;;;;;;;;;10078617;28;20075;-57
2024/01/18 06:31:53;;;;;;;37.05;28.92;;;;;;;;;;10073648;28;20543;-59
2024/01/18 06:36:52;;;;;;;39.25;30.95;;;;;;;;;;10079195;28;20063;-58
2024/01/18 06:41:52;;;;;;;65.75;44.00;;;;;;;;;;10082453;28;20078;-59
2024/01/18 06:46:50;;;;;;;48.78;36.20;;;;;;;;;;10076809;28;20543;-61
2024/01/18 06:51:48;;;;;;;50.72;36.17;;;;;;;;;;10080472;28;20078;-59
2024/01/18 06:56:47;;;;;;;53.42;37.47;;;;;;;;;;10081267;28;20074;-59
2024/01/18 07:01:46;;;;;;;65.47;44.45;;;;;;;;;;10067409;28;20544;-58
2024/01/18 07:06:44;;;;;;;50.97;34.60;;;;;;;;;;10076973;28;20067;-59
2024/01/18 07:11:43;;;;;;;45.22;32.63;;;;;;;;;;10078343;28;20075;-59
2024/01/18 07:16:41;;;;;;;34.45;28.30;;;;;;;;;;10068605;28;20070;-60
2024/01/18 07:21:41;;;;;;;36.88;28.75;;;;;;;;;;10062195;28;20089;-58
2024/01/18 07:26:39;;;;;;;31.30;25.55;;;;;;;;;;10063749;28;20511;-58
2024/01/18 07:31:37;;;;;;;36.75;25.33;;;;;;;;;;10068304;28;20086;-58
2024/01/18 07:36:36;;;;;;;39.35;28.83;;;;;;;;;;10074001;28;20081;-60
2024/01/18 07:41:36;;;;;;;46.00;33.70;;;;;;;;;;10078557;28;20105;-59
2024/01/18 07:46:34;;;;;;;43.63;32.00;;;;;;;;;;10069656;28;20470;-59
2024/01/18 07:51:33;;;;;;;44.58;33.58;;;;;;;;;;10063709;28;20089;-59
2024/01/18 07:56:31;;;;;;;50.05;36.88;;;;;;;;;;10076143;28;20075;-59
2024/01/18 08:01:31;;;;;;;46.97;35.22;;;;;;;;;;10068868;28;20093;-59
2024/01/18 08:06:34;;;;;;;47.47;35.25;;;;;;;;;;10062469;28;20079;-60
2024/01/18 08:11:32;;;;;;;37.65;31.48;;;;;;;;;;10076537;28;20082;-60
2024/01/18 08:16:33;;;;;;;35.72;29.10;;;;;;;;;;10065500;28;20098;-60
2024/01/18 08:21:31;;;;;;;39.05;31.15;;;;;;;;;;10071585;28;20079;-58
2024/01/18 08:26:29;;;;;;;41.55;31.65;;;;;;;;;;10066937;28;20130;-60
2024/01/18 08:31:28;;;;;;;33.03;25.27;;;;;;;;;;10060040;28;20104;-59
2024/01/18 08:36:27;;;;;;;38.50;30.75;;;;;;;;;;10066739;28;20073;-60
2024/01/18 08:41:26;;;;;;;37.85;31.48;;;;;;;;;;10053747;28;20227;-60
2024/01/18 08:46:24;;;;;;;41.17;35.00;;;;;;;;;;10062405;28;20067;-61
2024/01/18 08:51:24;;;;;;;38.10;31.35;;;;;;;;;;10076709;28;20082;-59
2024/01/18 08:56:24;;;;;;;44.53;33.72;;;;;;;;;;10078751;28;20087;-59
2024/01/18 09:01:28;;;;;;;84.05;57.20;;;;;;;;;;10076871;28;20070;-59
2024/01/18 09:06:26;;;;;;;55.42;40.42;;;;;;;;;;10055215;29;20074;-59
2024/01/18 09:16:57;;;;;;;50.53;35.70;;;;;;;;;;11102750;23;20516;-65
2024/01/18 09:21:55;;;;;;;39.45;30.90;;;;;;;;;;10101161;28;20440;-61
2024/01/18 09:26:53;;;;;;;56.60;36.13;;;;;;;;;;10097603;28;20527;-62
2024/01/18 09:31:51;;;;;;;51.70;37.95;;;;;;;;;;10102798;28;20545;-62
2024/01/18 09:36:51;;;;;;;49.72;36.10;;;;;;;;;;10090118;28;20094;-62
2024/01/18 09:41:50;;;;;;;39.90;30.92;;;;;;;;;;10107369;28;20078;-61
2024/01/18 09:46:49;;;;;;;53.00;37.78;;;;;;;;;;10097409;28;20086;-61
2024/01/18 09:51:48;;;;;;;50.15;39.00;;;;;;;;;;10099237;28;20078;-62
2024/01/18 09:56:49;;;;;;;56.50;40.28;;;;;;;;;;10095107;28;20070;-62
2024/01/18 10:01:48;;;;;;;60.95;42.85;;;;;;;;;;10096547;28;20081;-61
2024/01/18 10:06:46;;;;;;;56.70;41.60;;;;;;;;;;10094390;28;20070;-62
2024/01/18 10:11:46;;;;;;;60.63;43.13;;;;;;;;;;10091145;28;20083;-62
2024/01/18 10:16:45;;;;;;;57.85;40.75;;;;;;;;;;10094032;28;20082;-62
2024/01/18 10:21:44;;;;;;;52.50;38.10;;;;;;;;;;10088919;28;20074;-62
2024/01/18 10:26:43;;;;;;;57.88;38.55;;;;;;;;;;10090307;28;20453;-63
2024/01/18 10:31:42;;;;;;;51.17;36.33;;;;;;;;;;10094045;28;20067;-62
2024/01/18 10:36:42;;;;;;;55.38;39.80;;;;;;;;;;10094901;28;20079;-63
2024/01/18 10:41:41;;;;;;;56.88;41.42;;;;;;;;;;10094186;28;20460;-62
2024/01/18 10:46:41;;;;;;;58.08;40.35;;;;;;;;;;10098368;28;20231;-63
2024/01/18 10:51:39;;;;;;;54.70;43.35;;;;;;;;;;10097550;28;20084;-64
2024/01/18 10:56:40;;;;;;;54.47;39.78;;;;;;;;;;10093976;28;20074;-62
2024/01/18 11:01:39;;;;;;;49.40;38.85;;;;;;;;;;10098034;28;20078;-63
2024/01/18 11:06:37;;;;;;;81.75;57.33;;;;;;;;;;10095358;28;20070;-64
2024/01/18 11:11:36;;;;;;;57.05;41.53;;;;;;;;;;10092298;28;20496;-62
2024/01/18 11:16:38;;;;;;;56.15;41.60;;;;;;;;;;10094723;28;20085;-62
2024/01/18 11:21:39;;;;;;;57.55;40.67;;;;;;;;;;10095315;28;20086;-65
2024/01/18 11:26:37;;;;;;;64.60;44.67;;;;;;;;;;10098298;28;20070;-62
2024/01/18 11:31:47;;;;;;;54.80;40.03;;;;;;;;;;10096679;28;20504;-63
2024/01/18 11:36:47;;;;;;;51.42;38.28;;;;;;;;;;10095590;28;20067;-63
2024/01/18 11:41:46;;;;;;;66.50;44.42;;;;;;;;;;10095672;28;20078;-63
2024/01/18 11:46:47;;;;;;;49.80;37.47;;;;;;;;;;10092225;28;20067;-63
2024/01/18 11:51:47;;;;;;;58.65;40.80;;;;;;;;;;10091314;28;20081;-62
2024/01/18 11:56:48;;;;;;;80.78;58.40;;;;;;;;;;10095322;28;20516;-62
2024/01/18 12:01:48;;;;;;;54.17;39.78;;;;;;;;;;10096711;28;20078;-63
2024/01/18 12:06:46;;;;;;;59.47;42.92;;;;;;;;;;10090853;28;20537;-63
2024/01/18 12:11:44;;;;;;;49.55;35.17;;;;;;;;;;10091204;28;20081;-63
2024/01/18 12:16:43;;;;;;;82.03;60.25;;;;;;;;;;10090186;28;20095;-62
2024/01/18 12:21:42;;;;;;;51.40;39.88;;;;;;;;;;10100372;28;20089;-62
2024/01/18 12:26:41;;;;;;;45.83;33.65;;;;;;;;;;10102429;28;20113;-61
2024/01/18 12:31:40;;;;;;;54.55;44.80;;;;;;;;;;10101708;28;20083;-61
2024/01/18 12:36:39;;;;;;;39.15;29.17;;;;;;;;;;10103186;28;20082;-61
2024/01/18 12:41:42;;;;;;;57.50;40.22;;;;;;;;;;10100447;28;20085;-63
2024/01/18 12:46:40;;;;;;;44.72;32.58;;;;;;;;;;10103474;28;20071;-62
2024/01/18 12:51:39;;;;;;;41.63;33.22;;;;;;;;;;10097876;28;20083;-64
2024/01/18 12:56:37;;;;;;;36.13;28.48;;;;;;;;;;10097755;28;20101;-63
2024/01/18 13:01:37;;;;;;;60.13;38.17;;;;;;;;;;10101277;28;20074;-63
2024/01/18 13:06:36;;;;;;;40.55;30.02;;;;;;;;;;10095679;28;20074;-62
2024/01/18 13:11:48;;;;;;;146.32;89.80;;;;;;;;;;10096151;28;20086;-63
2024/01/18 13:16:49;;;;;;;155.68;97.60;;;;;;;;;;10093417;28;20093;-62
2024/01/18 13:21:47;;;;;;;43.05;33.90;;;;;;;;;;10098819;28;20441;-63
2024/01/18 13:26:47;;;;;;;39.28;29.52;;;;;;;;;;10097990;28;20082;-63
2024/01/18 13:31:45;;;;;;;56.30;41.67;;;;;;;;;;10099992;28;20081;-62
2024/01/18 13:36:46;;;;;;;61.85;45.33;;;;;;;;;;10099234;28;20535;-64
2024/01/18 13:41:44;;;;;;;48.22;36.47;;;;;;;;;;10098188;28;20496;-62
2024/01/18 13:46:44;;;;;;;43.80;32.25;;;;;;;;;;10100005;28;20480;-63
2024/01/18 13:51:42;;;;;;;229.25;132.95;;;;;;;;;;10097147;28;20082;-63
2024/01/18 13:56:43;;;;;;;175.02;103.38;;;;;;;;;;10103044;28;20078;-64
2024/01/18 14:01:41;;;;;;;70.93;49.15;;;;;;;;;;10093543;28;20085;-63
2024/01/18 14:06:39;;;;;;;207.65;116.07;;;;;;;;;;10094178;28;20079;-63
2024/01/18 14:11:38;;;;;;;68.80;44.50;;;;;;;;;;10115545;28;20086;-62
2024/01/18 14:16:37;;;;;;;97.60;70.10;;;;;;;;;;10100369;28;20537;-64
2024/01/18 14:21:36;;;;;;;83.18;68.38;;;;;;;;;;10091630;28;20078;-62
2024/01/18 14:26:34;;;;;;;66.32;51.00;;;;;;;;;;10095338;28;20166;-62
2024/01/18 14:31:34;;;;;;;208.25;112.88;;;;;;;;;;10094377;28;20090;-62
2024/01/18 14:36:33;;;;;;;52.85;40.60;;;;;;;;;;10097931;28;20108;-63
2024/01/18 14:41:31;;;;;;;66.75;45.95;;;;;;;;;;10093837;28;20537;-62
2024/01/18 14:46:31;;;;;;;94.65;64.53;;;;;;;;;;10094866;28;20077;-63
2024/01/18 14:51:30;;;;;;;109.05;83.45;;;;;;;;;;10094753;28;20543;-64
2024/01/18 14:56:30;;;;;;;77.03;53.60;;;;;;;;;;10092860;28;20074;-63
2024/01/18 15:01:28;;;;;;;113.60;84.80;;;;;;;;;;10088009;28;20082;-62
2024/01/18 15:06:26;;;;;;;256.30;142.57;;;;;;;;;;10083459;28;20066;-63
2024/01/18 15:11:25;;;;;;;76.05;52.97;;;;;;;;;;10086347;28;20078;-63
2024/01/18 15:16:25;;;;;;;63.30;46.17;;;;;;;;;;10089287;28;20086;-63
2024/01/18 15:21:24;;;;;;;76.25;57.70;;;;;;;;;;10088641;28;20708;-63
2024/01/18 15:26:22;;;;;;;79.00;56.45;;;;;;;;;;10081589;28;20071;-63
2024/01/18 15:31:28;;;;;;;102.45;63.67;;;;;;;;;;10090029;28;20089;-63
2024/01/18 15:36:27;;;;;;;86.10;65.22;;;;;;;;;;10085828;28;20094;-62
2024/01/18 15:41:28;;;;;;;131.60;96.80;;;;;;;;;;10092834;28;20071;-63
2024/01/18 15:46:27;;;;;;;123.53;85.60;;;;;;;;;;10091766;28;20085;-63
2024/01/18 15:51:26;;;;;;;132.98;88.47;;;;;;;;;;10092516;28;20073;-62
2024/01/18 15:56:24;;;;;;;179.20;116.97;;;;;;;;;;10089692;28;20062;-63
2024/01/18 16:01:22;;;;;;;90.57;63.80;;;;;;;;;;10090468;28;20059;-63
2024/01/18 16:06:23;;;;;;;64.25;48.83;;;;;;;;;;10092241;28;20524;-63
2024/01/18 16:11:21;;;;;;;72.13;54.05;;;;;;;;;;10092839;28;20553;-63
2024/01/18 16:16:19;;;;;;;97.03;68.70;;;;;;;;;;10086004;28;20097;-62
2024/01/18 16:21:18;;;;;;;87.57;71.53;;;;;;;;;;10088428;28;20066;-62
2024/01/18 16:26:17;;;;;;;72.43;58.15;;;;;;;;;;10084645;28;20101;-62
2024/01/18 16:31:16;;;;;;;73.05;54.40;;;;;;;;;;10089401;28;20089;-63
2024/01/18 16:36:15;;;;;;;66.20;50.42;;;;;;;;;;10088976;28;20077;-63
2024/01/18 16:41:14;;;;;;;112.18;88.32;;;;;;;;;;10092052;28;20079;-63
2024/01/18 16:46:13;;;;;;;100.20;75.20;;;;;;;;;;10091585;28;20508;-62
2024/01/18 16:51:12;;;;;;;42.20;35.35;;;;;;;;;;10090814;28;20082;-62
2024/01/18 16:56:11;;;;;;;52.47;45.22;;;;;;;;;;10094681;28;20074;-63
2024/01/18 17:01:09;;;;;;;69.82;54.50;;;;;;;;;;10092335;28;20519;-63
2024/01/18 17:06:09;;;;;;;122.18;95.80;;;;;;;;;;10094051;28;20314;-63
2024/01/18 17:11:09;;;;;;;96.80;73.93;;;;;;;;;;10098168;28;20078;-63
2024/01/18 17:16:18;;;;;;;83.88;56.45;;;;;;;;;;10092780;28;20108;-63
2024/01/18 17:21:17;;;;;;;65.13;46.25;;;;;;;;;;10098418;28;20070;-62
2024/01/18 17:26:15;;;;;;;84.78;65.88;;;;;;;;;;10096768;28;20062;-62
2024/01/18 17:31:14;;;;;;;65.80;50.67;;;;;;;;;;10097208;28;20255;-62
2024/01/18 17:36:12;;;;;;;65.63;49.13;;;;;;;;;;10095587;28;20077;-62
2024/01/18 17:41:12;;;;;;;61.75;47.22;;;;;;;;;;10095961;28;20074;-61
2024/01/18 17:46:10;;;;;;;64.60;47.78;;;;;;;;;;10093488;28;20093;-62
2024/01/18 17:51:08;;;;;;;45.17;38.97;;;;;;;;;;10098770;28;20070;-62
2024/01/18 17:56:06;;;;;;;52.67;41.03;;;;;;;;;;10093992;28;20093;-63
2024/01/18 18:01:06;;;;;;;55.33;40.17;;;;;;;;;;10090862;28;20062;-62
2024/01/18 18:06:05;;;;;;;52.53;40.05;;;;;;;;;;10097833;28;20078;-63
2024/01/18 18:11:04;;;;;;;55.13;43.25;;;;;;;;;;10096237;28;20500;-63
2024/01/18 18:16:02;;;;;;;62.05;50.05;;;;;;;;;;10098130;28;20109;-64
2024/01/18 18:21:02;;;;;;;62.55;49.30;;;;;;;;;;10099470;28;20071;-63
2024/01/18 18:26:00;;;;;;;46.22;38.08;;;;;;;;;;10096804;28;20484;-62
2024/01/18 18:31:06;;;;;;;62.20;44.65;;;;;;;;;;10097010;28;20074;-63
2024/01/18 18:36:06;;;;;;;56.70;44.45;;;;;;;;;;10097260;28;20604;-62
2024/01/18 18:41:05;;;;;;;43.40;35.78;;;;;;;;;;10091850;28;20081;-64
2024/01/18 18:46:04;;;;;;;41.70;35.50;;;;;;;;;;10097999;28;20069;-63
2024/01/18 18:51:02;;;;;;;43.22;36.35;;;;;;;;;;10097685;28;20069;-62
2024/01/18 18:56:02;;;;;;;45.47;39.30;;;;;;;;;;10103310;28;20078;-62
2024/01/18 19:01:01;;;;;;;54.85;42.33;;;;;;;;;;10099134;28;20089;-62
2024/01/18 19:05:59;;;;;;;57.13;40.78;;;;;;;;;;10091603;28;20542;-62
2024/01/18 19:10:57;;;;;;;39.97;33.45;;;;;;;;;;10095452;28;20493;-63
2024/01/18 19:15:58;;;;;;;42.60;34.95;;;;;;;;;;10092883;28;20105;-62
2024/01/18 19:20:56;;;;;;;47.78;34.90;;;;;;;;;;10095498;28;20074;-63
2024/01/18 19:25:55;;;;;;;42.22;34.95;;;;;;;;;;10096262;28;20077;-62
2024/01/18 19:30:53;;;;;;;44.08;35.60;;;;;;;;;;10094840;28;20453;-62
2024/01/18 19:35:52;;;;;;;46.30;36.95;;;;;;;;;;10091548;28;20070;-63
2024/01/18 19:40:51;;;;;;;51.60;42.13;;;;;;;;;;10092136;28;20090;-62
2024/01/18 19:45:49;;;;;;;45.92;36.10;;;;;;;;;;10091281;28;20074;-62
2024/01/18 19:50:47;;;;;;;46.88;37.05;;;;;;;;;;10090418;28;20086;-62
2024/01/18 19:55:48;;;;;;;50.55;36.85;;;;;;;;;;10095255;28;20082;-62
2024/01/18 20:00:46;;;;;;;45.08;37.05;;;;;;;;;;10096368;28;20086;-62
2024/01/18 20:05:44;;;;;;;40.00;33.42;;;;;;;;;;10095340;28;20070;-62
2024/01/18 20:10:43;;;;;;;39.33;32.00;;;;;;;;;;10087945;28;20077;-62
2024/01/18 20:15:45;;;;;;;42.50;33.60;;;;;;;;;;10093572;28;20500;-62
2024/01/18 20:20:43;;;;;;;39.80;33.85;;;;;;;;;;10091195;28;20110;-62
2024/01/18 20:25:42;;;;;;;65.82;51.75;;;;;;;;;;10090192;28;20063;-62
2024/01/18 20:30:41;;;;;;;54.75;44.15;;;;;;;;;;10093639;28;20089;-62
2024/01/18 20:35:40;;;;;;;99.05;68.95;;;;;;;;;;10091246;28;20505;-62
2024/01/18 20:40:38;;;;;;;127.80;94.18;;;;;;;;;;10093600;28;20071;-62
2024/01/18 20:45:37;;;;;;;108.80;75.65;;;;;;;;;;10097789;28;20074;-60
2024/01/18 20:50:36;;;;;;;101.88;68.35;;;;;;;;;;10095773;28;20101;-61
2024/01/18 20:55:34;;;;;;;161.88;100.68;;;;;;;;;;10101580;28;20077;-61
2024/01/18 21:00:33;;;;;;;135.65;85.57;;;;;;;;;;10097194;28;20073;-63
2024/01/18 21:05:33;;;;;;;160.13;97.40;;;;;;;;;;10098278;28;20073;-63
2024/01/18 21:10:33;;;;;;;147.43;87.78;;;;;;;;;;10100276;28;20078;-61
2024/01/18 21:15:31;;;;;;;207.43;116.00;;;;;;;;;;10096877;28;20089;-61
2024/01/18 21:20:29;;;;;;;90.80;58.63;;;;;;;;;;10096502;28;20121;-63
2024/01/18 21:25:27;;;;;;;104.85;67.13;;;;;;;;;;10098809;28;20097;-64
2024/01/18 21:30:28;;;;;;;116.82;74.22;;;;;;;;;;10099573;28;20085;-63
2024/01/18 21:35:26;;;;;;;32.92;26.27;;;;;;;;;;10095562;28;20066;-63
2024/01/18 21:40:24;;;;;;;214.23;117.63;;;;;;;;;;10095352;28;20079;-62
2024/01/18 21:45:22;;;;;;;37.13;28.17;;;;;;;;;;10089645;28;20086;-63
2024/01/18 21:50:23;;;;;;;57.30;45.17;;;;;;;;;;10091023;28;20074;-61
2024/01/18 21:55:21;;;;;;;56.10;47.60;;;;;;;;;;10089050;28;20074;-60
2024/01/18 22:00:19;;;;;;;65.90;51.20;;;;;;;;;;10094034;28;20081;-61
2024/01/18 22:05:18;;;;;;;51.80;43.85;;;;;;;;;;10106997;28;20082;-62
2024/01/18 22:10:18;;;;;;;49.10;40.90;;;;;;;;;;10096757;28;20070;-62
2024/01/18 22:15:17;;;;;;;172.82;111.63;;;;;;;;;;10100386;28;20090;-62
2024/01/18 22:20:16;;;;;;;59.38;47.45;;;;;;;;;;10093165;28;20543;-61
2024/01/18 22:25:14;;;;;;;44.50;38.70;;;;;;;;;;10096398;28;20082;-61
2024/01/18 22:30:14;;;;;;;43.75;36.00;;;;;;;;;;10095101;28;20077;-61
2024/01/18 22:35:12;;;;;;;45.88;40.97;;;;;;;;;;10093804;28;20066;-61
2024/01/18 22:40:11;;;;;;;41.65;36.47;;;;;;;;;;10094641;28;20073;-62
2024/01/18 22:45:10;;;;;;;40.88;34.97;;;;;;;;;;10093187;28;20094;-63
2024/01/18 22:50:10;;;;;;;44.88;37.83;;;;;;;;;;10095711;28;20071;-63
2024/01/18 22:55:08;;;;;;;43.45;36.30;;;;;;;;;;10090373;28;20082;-63
2024/01/18 23:00:08;;;;;;;47.30;35.70;;;;;;;;;;10095248;28;20152;-63
2024/01/18 23:05:07;;;;;;;40.47;34.50;;;;;;;;;;10088165;28;20113;-62
2024/01/18 23:10:10;;;;;;;43.00;33.70;;;;;;;;;;10094150;28;20078;-62
2024/01/18 23:15:08;;;;;;;39.30;32.90;;;;;;;;;;10095419;28;20106;-63
2024/01/18 23:20:07;;;;;;;46.13;39.10;;;;;;;;;;10089792;28;20473;-62
2024/01/18 23:25:07;;;;;;;43.92;36.08;;;;;;;;;;10092885;28;20074;-62
2024/01/18 23:30:06;;;;;;;45.88;36.50;;;;;;;;;;10089890;28;20071;-63
2024/01/18 23:35:04;;;;;;;38.72;32.67;;;;;;;;;;10093194;28;20498;-63
2024/01/18 23:40:03;;;;;;;45.03;33.83;;;;;;;;;;10093945;28;20535;-63
2024/01/18 23:45:03;;;;;;;63.80;52.70;;;;;;;;;;10094293;28;20090;-63
2024/01/18 23:50:01;;;;;;;45.78;37.38;;;;;;;;;;10092911;28;20070;-63
2024/01/18 23:54:59;;;;;;;44.45;36.42;;;;;;;;;;10092991;28;20104;-62
2024/01/18 23:59:58;;;;;;;40.72;34.03;;;;;;;;;;10108205;28;20082;-64
